ハルツーム の空港の天気 - METARとTAF

ハルツーム国際空港 ( HSSS / KRT ) - スーダン ハルツーム
飛行場実況気象(Metar)
観測時間04/21 19:00 CAT (04/21 17:00 UTC)
風向・風速北北西 5m/s
視程10km以上
天気現象
なし
気温32℃
湿度8%
気圧1009hPa
METARHSSS 211700Z 34010KT CAVOK 32/M06 Q1009 NOSIG
過去の天気等 Google飛行場航空写真 Wunderground天気予報

過去48時間のMETAR

飛行場予報(TAF)
発表時間: 4/21 13:00 CAT (4/21 11:00 UTC)
予報対象時間: 21日14時 CAT ~ 22日20時 CAT
風向・風速北北西 8m/s 瞬間風速 13m/s
視程10km以上
なし
21日15時 CAT ~ 21日18時 CAT に一時的に
視程6000m
なし
HSSS 211100Z 2112/2218 34015G25KT CAVOK
TEMPO 2113/2116 6000 NSC